createdAt,value
2023-05-05T00:00:02.511Z,14.3065
2023-05-05T00:01:03.332Z,14.2599
2023-05-05T00:02:04.914Z,14.2453
2023-05-05T00:03:06.764Z,14.2640
2023-05-05T00:04:08.218Z,14.3155
2023-05-05T00:05:09.886Z,14.3521
2023-05-05T00:06:11.593Z,14.3028
2023-05-05T00:07:13.147Z,14.2459
2023-05-05T00:08:14.794Z,14.2126
2023-05-05T00:09:16.424Z,14.2492
2023-05-05T00:10:18.090Z,14.2894
2023-05-05T00:11:19.760Z,14.3153
2023-05-05T00:12:21.331Z,14.2909
2023-05-05T00:13:23.048Z,14.2570
2023-05-05T00:14:24.659Z,14.2463
2023-05-05T00:15:26.307Z,14.2728
2023-05-05T00:16:28.081Z,14.2933
2023-05-05T00:17:29.610Z,14.3108
2023-05-05T00:18:31.276Z,14.2670
2023-05-05T00:19:32.893Z,14.1771
2023-05-05T00:20:34.583Z,14.1804
2023-05-05T00:21:36.244Z,14.2356
2023-05-05T00:22:37.862Z,14.2625
2023-05-05T00:23:39.472Z,14.2664
2023-05-05T00:24:41.217Z,14.2284
2023-05-05T00:25:42.754Z,14.2251
2023-05-05T00:26:44.490Z,14.2251
2023-05-05T00:27:46.152Z,14.2578
2023-05-05T00:28:47.770Z,14.2923
2023-05-05T00:29:49.331Z,14.2652
2023-05-05T00:30:51.070Z,14.2475
2023-05-05T00:31:52.665Z,14.2245
2023-05-05T00:32:54.467Z,14.2206
2023-05-05T00:33:55.908Z,14.2467
2023-05-05T00:34:57.673Z,14.2779
2023-05-05T00:35:59.281Z,14.2584
2023-05-05T00:37:00.929Z,14.2334
2023-05-05T00:38:02.482Z,14.1888
2023-05-05T00:39:04.207Z,14.1968
2023-05-05T00:40:05.897Z,14.2214
2023-05-05T00:41:07.485Z,14.2453
2023-05-05T00:42:10.493Z,14.2278
2023-05-05T00:43:10.692Z,14.2021
2023-05-05T00:44:12.394Z,14.1584
2023-05-05T00:45:15.004Z,14.1701
2023-05-05T00:46:15.704Z,14.2054
2023-05-05T00:47:17.389Z,14.2309
2023-05-05T00:48:19.078Z,14.2414
2023-05-05T00:49:20.666Z,14.1904
2023-05-05T00:50:22.255Z,14.1469
2023-05-05T00:51:23.991Z,14.1502
2023-05-05T00:52:25.601Z,14.2085
2023-05-05T00:53:27.226Z,14.2605
2023-05-05T00:54:28.824Z,14.3050
2023-05-05T00:55:30.504Z,14.2516
2023-05-05T00:56:32.121Z,14.1676
2023-05-05T00:57:33.830Z,14.1089
2023-05-05T00:58:35.355Z,14.1341
2023-05-05T00:59:37.082Z,14.2108
2023-05-05T01:00:38.679Z,14.2732
2023-05-05T01:01:41.491Z,14.3024
2023-05-05T01:02:42.458Z,14.2927
2023-05-05T01:03:43.845Z,14.1220
2023-05-05T01:04:46.139Z,14.0610
2023-05-05T01:05:46.883Z,14.0842
2023-05-05T01:06:48.494Z,14.1635
2023-05-05T01:07:50.130Z,14.2038
2023-05-05T01:08:51.794Z,14.2479
2023-05-05T01:10:04.201Z,14.2870
2023-05-05T01:10:55.089Z,14.2097
2023-05-05T01:11:56.780Z,14.0553
2023-05-05T01:12:58.436Z,14.0162
2023-05-05T01:13:59.967Z,14.0772
2023-05-05T01:15:01.639Z,14.1498
2023-05-05T01:16:03.337Z,14.1991
2023-05-05T01:17:04.951Z,14.2157
2023-05-05T01:18:06.764Z,14.2555
2023-05-05T01:19:08.200Z,14.1884
2023-05-05T01:20:10.013Z,14.0193
2023-05-05T01:21:11.495Z,13.9947
2023-05-05T01:22:13.129Z,14.0797
2023-05-05T01:23:14.786Z,14.1436
2023-05-05T01:24:16.386Z,14.1968
2023-05-05T01:25:18.073Z,14.2484
2023-05-05T01:26:19.691Z,14.3024
2023-05-05T01:27:21.367Z,14.1754
2023-05-05T01:28:23.021Z,14.0304
2023-05-05T01:29:24.643Z,14.0113
2023-05-05T01:30:26.257Z,14.0828
2023-05-05T01:31:28.032Z,14.1387
2023-05-05T01:32:29.635Z,14.1600
2023-05-05T01:33:31.556Z,14.2011
2023-05-05T01:34:32.892Z,14.2592
2023-05-05T01:35:34.515Z,14.1502
2023-05-05T01:36:36.150Z,14.0101
2023-05-05T01:37:37.868Z,14.0004
2023-05-05T01:38:39.498Z,14.0916
2023-05-05T01:39:41.107Z,14.1563
2023-05-05T01:40:42.766Z,14.1915
2023-05-05T01:41:44.439Z,14.2371
2023-05-05T01:42:46.063Z,14.2440
2023-05-05T01:43:47.739Z,14.0770
2023-05-05T01:44:49.241Z,13.9704
2023-05-05T01:45:50.980Z,13.9649
2023-05-05T01:46:52.560Z,14.0505
2023-05-05T01:47:54.273Z,14.1294
2023-05-05T01:48:55.836Z,14.1779
2023-05-05T01:49:57.605Z,14.1826
2023-05-05T01:50:59.158Z,14.2249
2023-05-05T01:52:00.870Z,14.0713
2023-05-05T01:53:02.473Z,13.9826
2023-05-05T01:54:04.958Z,14.0068
2023-05-05T01:55:05.800Z,14.0608
2023-05-05T01:56:07.365Z,14.1239
2023-05-05T01:57:09.010Z,14.1826
2023-05-05T01:58:10.781Z,14.2280
2023-05-05T01:59:12.334Z,14.2112
2023-05-05T02:00:13.997Z,14.0372
2023-05-05T02:01:15.604Z,13.9335
2023-05-05T02:02:17.266Z,13.9651
2023-05-05T02:03:18.969Z,14.0575
2023-05-05T02:04:20.665Z,14.1116
2023-05-05T02:05:22.198Z,14.1565
2023-05-05T02:06:23.820Z,14.2422
2023-05-05T02:07:25.429Z,14.2329
2023-05-05T02:08:27.185Z,14.0419
2023-05-05T02:09:28.754Z,13.9400
2023-05-05T02:10:30.415Z,13.9727
2023-05-05T02:11:32.004Z,14.0323
2023-05-05T02:12:33.719Z,14.1120
2023-05-05T02:13:35.368Z,14.1514
2023-05-05T02:14:36.997Z,14.2332
2023-05-05T02:15:38.678Z,14.2769
2023-05-05T02:16:40.284Z,14.0898
2023-05-05T02:17:41.939Z,13.9345
2023-05-05T02:18:43.565Z,13.9359
2023-05-05T02:19:45.250Z,14.0234
2023-05-05T02:20:46.860Z,14.0885
2023-05-05T02:21:48.561Z,14.1611
2023-05-05T02:22:50.131Z,14.1919
2023-05-05T02:23:51.922Z,14.2354
2023-05-05T02:24:53.467Z,14.1120
2023-05-05T02:25:55.018Z,13.9836
2023-05-05T02:26:56.816Z,13.9661
2023-05-05T02:27:58.319Z,14.0427
2023-05-05T02:29:00.031Z,14.1089
2023-05-05T02:30:01.654Z,14.1393
2023-05-05T02:31:03.294Z,14.1760
2023-05-05T02:32:04.986Z,14.2286
2023-05-05T02:33:06.715Z,14.1079
2023-05-05T02:34:08.226Z,13.9731
2023-05-05T02:35:09.896Z,13.9448
2023-05-05T02:36:11.536Z,13.9984
2023-05-05T02:37:13.214Z,14.0368
2023-05-05T02:38:14.783Z,14.0812
2023-05-05T02:39:16.426Z,14.1545
2023-05-05T02:40:18.082Z,14.1972
2023-05-05T02:41:19.690Z,14.1847
2023-05-05T02:42:21.923Z,14.0201
2023-05-05T02:43:23.124Z,13.9524
2023-05-05T02:44:24.626Z,13.9828
2023-05-05T02:45:26.855Z,14.0861
2023-05-05T02:46:27.963Z,14.0986
2023-05-05T02:47:29.628Z,14.1292
2023-05-05T02:48:31.148Z,14.1648
2023-05-05T02:49:32.885Z,14.2050
2023-05-05T02:50:34.498Z,14.0900
2023-05-05T02:51:36.232Z,13.9542
2023-05-05T02:52:37.824Z,13.9308
2023-05-05T02:53:39.443Z,14.0130
2023-05-05T02:54:41.436Z,14.0721
2023-05-05T02:55:42.753Z,14.1111
2023-05-05T02:56:44.359Z,14.1557
2023-05-05T02:57:46.001Z,14.2028
2023-05-05T02:58:47.620Z,14.2106
2023-05-05T02:59:49.339Z,13.9828
2023-05-05T03:00:50.953Z,13.9100
2023-05-05T03:01:52.736Z,13.9357
2023-05-05T03:02:54.339Z,13.9930
2023-05-05T03:03:55.976Z,14.0345
2023-05-05T03:04:57.556Z,14.0152
2023-05-05T03:05:59.208Z,14.0803
2023-05-05T03:07:00.767Z,14.1302
2023-05-05T03:08:02.533Z,14.1736
2023-05-05T03:09:04.171Z,14.0197
2023-05-05T03:10:06.203Z,13.9051
2023-05-05T03:11:07.386Z,13.9281
2023-05-05T03:12:09.096Z,14.0130
2023-05-05T03:13:10.858Z,14.0544
2023-05-05T03:14:12.369Z,14.0631
2023-05-05T03:15:14.071Z,14.1346
2023-05-05T03:16:15.780Z,14.1687
2023-05-05T03:17:17.310Z,14.1988
2023-05-05T03:18:18.988Z,14.0372
2023-05-05T03:19:20.617Z,13.8642
2023-05-05T03:20:22.302Z,13.8497
2023-05-05T03:21:23.963Z,13.9404
2023-05-05T03:22:25.536Z,13.9953
2023-05-05T03:23:27.175Z,14.0468
2023-05-05T03:24:28.850Z,14.1031
2023-05-05T03:25:30.557Z,14.1450
2023-05-05T03:26:32.487Z,14.1999
2023-05-05T03:27:33.796Z,14.0551
2023-05-05T03:28:35.363Z,13.9222
2023-05-05T03:29:37.096Z,13.8858
2023-05-05T03:30:38.781Z,13.9791
2023-05-05T03:31:41.102Z,14.0403
2023-05-05T03:32:42.082Z,14.0803
2023-05-05T03:33:43.649Z,14.1136
2023-05-05T03:34:45.245Z,14.1740
2023-05-05T03:35:46.976Z,14.2007
2023-05-05T03:36:48.582Z,13.9912
2023-05-05T03:37:50.971Z,13.8620
2023-05-05T03:38:51.816Z,13.9033
2023-05-05T03:39:53.605Z,14.0023
2023-05-05T03:40:55.195Z,14.0592
2023-05-05T03:41:56.853Z,14.0830
2023-05-05T03:42:58.434Z,14.1341
2023-05-05T03:44:00.185Z,14.1808
2023-05-05T03:45:01.733Z,14.0493
2023-05-05T03:46:03.469Z,13.8924
2023-05-05T03:47:06.000Z,13.8753
2023-05-05T03:48:06.752Z,13.9470
2023-05-05T03:49:08.311Z,14.0368
2023-05-05T03:50:10.170Z,14.1027
2023-05-05T03:51:11.636Z,14.1656
2023-05-05T03:52:15.093Z,14.2383
2023-05-05T03:53:14.976Z,14.1189
2023-05-05T03:54:16.552Z,13.9222
2023-05-05T03:55:18.186Z,13.8708
2023-05-05T03:56:19.873Z,13.9041
2023-05-05T03:57:21.468Z,14.0105
2023-05-05T03:58:24.011Z,14.1081
2023-05-05T03:59:24.741Z,14.1715
2023-05-05T04:00:26.464Z,14.2253
2023-05-05T04:01:28.859Z,14.1795
2023-05-05T04:02:29.855Z,14.0058
2023-05-05T04:03:31.651Z,13.8729
2023-05-05T04:04:33.154Z,13.8710
2023-05-05T04:05:34.653Z,13.9671
2023-05-05T04:06:36.293Z,14.0534
2023-05-05T04:07:37.927Z,14.1469
2023-05-05T04:08:40.068Z,14.2334
2023-05-05T04:09:41.959Z,14.2221
2023-05-05T04:10:42.907Z,14.0337
2023-05-05T04:11:44.545Z,13.8990
2023-05-05T04:12:46.356Z,13.9228
2023-05-05T04:13:47.871Z,14.0376
2023-05-05T04:14:49.537Z,14.1415
2023-05-05T04:15:51.104Z,14.2110
2023-05-05T04:16:52.716Z,14.2562
2023-05-05T04:17:55.142Z,14.1341
2023-05-05T04:18:56.061Z,13.9224
2023-05-05T04:19:57.720Z,13.8983
2023-05-05T04:20:59.306Z,13.9550
2023-05-05T04:22:00.971Z,14.0768
2023-05-05T04:23:02.643Z,14.1746
2023-05-05T04:24:04.278Z,14.2537
2023-05-05T04:25:05.964Z,14.2555
2023-05-05T04:26:07.514Z,14.0711
2023-05-05T04:27:09.192Z,13.9528
2023-05-05T04:28:10.852Z,13.9530
2023-05-05T04:29:12.523Z,14.0448
2023-05-05T04:30:14.143Z,14.1485
2023-05-05T04:31:15.753Z,14.2527
2023-05-05T04:32:17.296Z,14.3241
2023-05-05T04:33:19.018Z,14.1631
2023-05-05T04:34:20.640Z,13.9423
2023-05-05T04:35:22.300Z,13.9148
2023-05-05T04:36:23.936Z,14.0023
2023-05-05T04:37:25.520Z,14.1243
2023-05-05T04:38:27.301Z,14.2537
2023-05-05T04:39:29.535Z,14.3484
2023-05-05T04:40:30.481Z,14.3260
2023-05-05T04:41:32.049Z,14.0881
2023-05-05T04:42:33.701Z,13.9285
2023-05-05T04:43:35.400Z,13.9589
2023-05-05T04:44:37.474Z,14.1025
2023-05-05T04:45:38.705Z,14.2342
2023-05-05T04:46:40.326Z,14.3361
2023-05-05T04:47:42.045Z,14.3463
2023-05-05T04:48:43.590Z,14.1917
2023-05-05T04:49:45.476Z,13.9893
2023-05-05T04:50:46.971Z,13.9965
2023-05-05T04:51:48.547Z,14.0797
2023-05-05T04:52:51.392Z,14.2071
2023-05-05T04:53:53.091Z,14.3476
2023-05-05T04:54:53.632Z,14.3761
2023-05-05T04:55:55.286Z,14.2578
2023-05-05T04:56:56.918Z,14.0598
2023-05-05T04:57:58.584Z,13.9990
2023-05-05T04:59:00.206Z,14.0446
2023-05-05T05:00:01.893Z,14.1413
2023-05-05T05:01:03.525Z,14.2607
2023-05-05T05:02:05.246Z,14.3909
2023-05-05T05:03:06.854Z,14.3595
2023-05-05T05:04:08.422Z,14.1672
2023-05-05T05:05:10.094Z,13.9904
2023-05-05T05:06:11.723Z,14.0247
2023-05-05T05:07:13.336Z,14.1204
2023-05-05T05:08:15.087Z,14.2506
2023-05-05T05:09:16.575Z,14.3782
2023-05-05T05:10:18.342Z,14.4195
2023-05-05T05:11:19.974Z,14.2143
2023-05-05T05:12:21.563Z,13.9778
2023-05-05T05:13:23.269Z,13.9647
2023-05-05T05:14:24.898Z,13.9922
2023-05-05T05:15:26.463Z,14.1136
2023-05-05T05:16:28.351Z,14.2430
2023-05-05T05:17:29.858Z,14.3568
2023-05-05T05:18:31.521Z,14.3650
2023-05-05T05:19:34.069Z,14.1966
2023-05-05T05:20:35.092Z,14.0501
2023-05-05T05:21:36.425Z,14.0450
2023-05-05T05:22:38.009Z,14.1189
2023-05-05T05:23:39.658Z,14.2588
2023-05-05T05:24:41.363Z,14.3825
2023-05-05T05:25:43.897Z,14.4423
2023-05-05T05:26:44.690Z,14.2991
2023-05-05T05:27:50.136Z,14.0941
2023-05-05T05:28:47.856Z,14.1052
2023-05-05T05:29:49.558Z,14.1613
2023-05-05T05:30:51.228Z,14.2876
2023-05-05T05:31:52.803Z,14.4180
2023-05-05T05:32:54.544Z,14.5365
2023-05-05T05:33:56.191Z,14.4835
2023-05-05T05:34:57.678Z,14.2662
2023-05-05T05:35:59.470Z,14.1929
2023-05-05T05:37:01.076Z,14.2623
2023-05-05T05:38:02.700Z,14.3527
2023-05-05T05:39:04.256Z,14.5039
2023-05-05T05:40:06.032Z,14.6337
2023-05-05T05:41:07.535Z,14.5850
2023-05-05T05:42:10.507Z,14.3482
2023-05-05T05:43:10.923Z,14.2484
2023-05-05T05:44:12.522Z,14.2942
2023-05-05T05:45:14.094Z,14.4646
2023-05-05T05:46:15.886Z,14.6415
2023-05-05T05:47:17.500Z,14.7576
2023-05-05T05:48:20.104Z,14.6503
2023-05-05T05:49:20.598Z,14.4359
2023-05-05T05:50:22.673Z,14.3178
2023-05-05T05:51:24.267Z,14.3833
2023-05-05T05:52:25.978Z,14.5265
2023-05-05T05:53:28.665Z,14.7345
2023-05-05T05:54:29.666Z,14.7945
2023-05-05T05:55:30.492Z,14.6655
2023-05-05T05:56:32.215Z,14.5043
2023-05-05T05:57:34.167Z,14.5302
2023-05-05T05:58:35.413Z,14.6493
2023-05-05T05:59:37.121Z,14.8547
2023-05-05T06:00:38.950Z,14.9919
2023-05-05T06:01:40.445Z,14.8820
2023-05-05T06:02:42.296Z,14.7500
2023-05-05T06:03:43.712Z,14.8313
2023-05-05T06:04:45.285Z,14.9835
2023-05-05T06:05:46.886Z,15.2205
2023-05-05T06:06:48.675Z,15.4167
2023-05-05T06:07:50.229Z,15.5956
2023-05-05T06:08:51.877Z,15.7628
2023-05-05T06:09:53.503Z,15.6424
2023-05-05T06:10:55.272Z,15.4492
2023-05-05T06:11:56.831Z,15.4625
2023-05-05T06:12:58.578Z,15.6209
2023-05-05T06:14:00.071Z,15.7977
2023-05-05T06:15:01.727Z,15.9575
2023-05-05T06:16:03.395Z,16.1075
2023-05-05T06:17:05.085Z,16.2412
2023-05-05T06:18:06.702Z,16.3645
2023-05-05T06:19:08.349Z,16.5041
2023-05-05T06:20:10.058Z,16.6286
2023-05-05T06:21:11.630Z,16.7806
2023-05-05T06:22:13.348Z,16.9591
2023-05-05T06:23:14.886Z,17.0850
2023-05-05T06:24:16.474Z,17.1006
2023-05-05T06:25:18.180Z,17.0955
2023-05-05T06:26:19.818Z,17.1321
2023-05-05T06:27:21.446Z,17.2037
2023-05-05T06:28:23.612Z,17.2865
2023-05-05T06:29:24.694Z,17.3909
2023-05-05T06:30:26.413Z,17.4812
2023-05-05T06:31:27.996Z,17.5616
2023-05-05T06:32:30.164Z,17.6164
2023-05-05T06:33:31.328Z,17.3611
2023-05-05T06:34:32.970Z,17.0063
2023-05-05T06:35:34.596Z,16.9920
2023-05-05T06:36:36.306Z,17.1583
2023-05-05T06:37:37.868Z,17.3857
2023-05-05T06:38:39.571Z,17.5887
2023-05-05T06:39:41.135Z,17.7912
2023-05-05T06:40:42.841Z,17.8894
2023-05-05T06:41:44.478Z,17.6293
2023-05-05T06:42:46.160Z,17.3149
2023-05-05T06:43:48.097Z,17.2982
2023-05-05T06:44:49.469Z,17.4523
2023-05-05T06:45:50.950Z,17.6858
2023-05-05T06:46:52.731Z,17.9426
2023-05-05T06:47:54.295Z,18.1675
2023-05-05T06:48:56.118Z,18.0256
2023-05-05T06:49:57.502Z,17.7076
2023-05-05T06:50:59.201Z,17.5663
2023-05-05T06:52:00.799Z,17.7066
2023-05-05T06:53:02.481Z,17.9426
2023-05-05T06:54:04.152Z,18.1975
2023-05-05T06:55:05.742Z,18.4520
2023-05-05T06:56:07.405Z,18.4274
2023-05-05T06:57:09.054Z,18.3723
2023-05-05T06:58:11.600Z,18.7431
2023-05-05T06:59:12.308Z,19.1001
2023-05-05T07:00:13.898Z,19.4665
2023-05-05T07:01:15.720Z,19.7808
2023-05-05T07:02:17.211Z,20.3752
2023-05-05T07:03:18.914Z,20.6963
2023-05-05T07:04:20.561Z,20.8205
2023-05-05T07:05:22.244Z,21.1562
2023-05-05T07:06:23.765Z,21.4514
2023-05-05T07:07:25.451Z,21.9320
2023-05-05T07:08:27.066Z,22.2321
2023-05-05T07:09:28.743Z,22.1337
2023-05-05T07:10:30.356Z,21.8404
2023-05-05T07:11:31.956Z,21.3889
2023-05-05T07:12:33.668Z,21.1500
2023-05-05T07:13:35.249Z,21.2106
2023-05-05T07:14:37.019Z,21.0962
2023-05-05T07:15:38.684Z,20.8310
2023-05-05T07:16:40.337Z,20.5258
2023-05-05T07:17:41.879Z,20.5007
2023-05-05T07:18:43.586Z,20.8411
2023-05-05T07:19:45.248Z,21.2585
2023-05-05T07:20:46.965Z,21.4433
2023-05-05T07:21:48.437Z,21.4930
2023-05-05T07:22:50.107Z,21.3797
2023-05-05T07:23:52.091Z,21.7858
2023-05-05T07:24:53.462Z,22.3825
2023-05-05T07:25:54.998Z,22.5328
2023-05-05T07:26:56.644Z,22.3104
2023-05-05T07:27:58.272Z,21.9065
2023-05-05T07:29:00.008Z,21.6200
2023-05-05T07:30:02.073Z,21.4530
2023-05-05T07:31:03.263Z,20.9855
2023-05-05T07:32:04.921Z,20.5989
2023-05-05T07:33:06.554Z,20.3855
2023-05-05T07:34:08.519Z,20.4810
2023-05-05T07:35:09.789Z,20.7778
2023-05-05T07:36:11.519Z,20.8392
2023-05-05T07:37:13.104Z,20.6322
2023-05-05T07:38:15.602Z,20.4186
2023-05-05T07:39:17.127Z,20.4603
2023-05-05T07:40:18.095Z,20.3908
2023-05-05T07:41:19.651Z,20.3325
2023-05-05T07:42:21.422Z,20.3120
2023-05-05T07:43:23.015Z,20.2729
2023-05-05T07:44:24.658Z,20.3101
2023-05-05T07:45:26.268Z,20.3880
2023-05-05T07:46:28.016Z,20.2811
2023-05-05T07:47:29.587Z,20.1729
2023-05-05T07:48:31.193Z,20.1528
2023-05-05T07:49:32.811Z,20.1887
2023-05-05T07:50:34.505Z,20.1939
2023-05-05T07:51:36.051Z,20.0291
2023-05-05T07:52:45.313Z,19.8956
2023-05-05T07:53:39.304Z,19.8449
2023-05-05T07:54:40.960Z,20.0287
2023-05-05T07:55:43.033Z,20.2175
2023-05-05T07:56:44.569Z,20.1433
2023-05-05T07:57:45.963Z,20.0213
2023-05-05T07:58:48.488Z,19.9375
2023-05-05T07:59:49.226Z,20.0696
2023-05-05T08:00:50.999Z,20.2249
2023-05-05T08:01:54.791Z,20.1789
2023-05-05T08:02:54.322Z,20.0667
2023-05-05T08:03:55.995Z,19.9447
2023-05-05T08:04:57.596Z,19.9478
2023-05-05T08:05:59.305Z,20.1259
2023-05-05T08:07:00.877Z,20.0790
2023-05-05T08:08:02.567Z,19.9967
2023-05-05T08:09:04.159Z,19.9720
2023-05-05T08:10:05.832Z,20.0581
2023-05-05T08:11:07.479Z,20.2358
2023-05-05T08:12:09.896Z,20.2657
2023-05-05T08:13:10.632Z,20.1713
2023-05-05T08:14:12.278Z,20.2524
2023-05-05T08:15:13.924Z,20.6342
2023-05-05T08:16:15.583Z,21.3222
2023-05-05T08:17:18.144Z,21.8108
2023-05-05T08:18:18.861Z,22.0647
2023-05-05T08:19:28.600Z,22.3038
2023-05-05T08:20:22.148Z,22.6782
2023-05-05T08:21:23.793Z,22.8886
2023-05-05T08:22:25.421Z,22.9001
2023-05-05T08:23:27.048Z,22.8808
2023-05-05T08:24:28.640Z,22.9354
2023-05-05T08:25:30.283Z,23.0934
2023-05-05T08:26:31.933Z,23.0919
2023-05-05T08:27:33.625Z,22.8352
2023-05-05T08:28:35.307Z,22.7294
2023-05-05T08:29:36.827Z,22.9040
2023-05-05T08:30:38.434Z,23.0533
2023-05-05T08:31:40.320Z,22.8325
2023-05-05T08:32:41.871Z,22.5955
2023-05-05T08:33:43.450Z,22.4730
2023-05-05T08:34:45.014Z,22.5213
2023-05-05T08:35:46.706Z,22.2746
2023-05-05T08:36:48.360Z,21.8439
2023-05-05T08:37:49.964Z,21.4965
2023-05-05T08:38:51.593Z,21.4082
2023-05-05T08:39:53.202Z,21.5771
2023-05-05T08:40:54.953Z,21.5612
2023-05-05T08:41:56.590Z,21.5970
2023-05-05T08:42:58.230Z,21.6960
2023-05-05T08:43:59.779Z,22.1257
2023-05-05T08:45:01.425Z,22.5575
2023-05-05T08:46:03.163Z,22.6550
2023-05-05T08:47:04.864Z,22.7403
2023-05-05T08:48:06.460Z,22.7834
2023-05-05T08:49:08.087Z,22.9562
2023-05-05T08:50:09.681Z,23.0757
2023-05-05T08:51:11.256Z,22.9194
2023-05-05T08:52:13.024Z,22.8399
2023-05-05T08:53:14.600Z,22.8321
2023-05-05T08:54:16.222Z,22.9718
2023-05-05T08:55:17.942Z,23.0406
2023-05-05T08:56:19.467Z,22.9434
2023-05-05T08:57:21.185Z,22.7809
2023-05-05T08:58:23.015Z,22.6986
2023-05-05T08:59:24.403Z,22.6587
2023-05-05T09:00:26.095Z,22.5277
2023-05-05T09:01:27.710Z,22.4038
2023-05-05T09:02:29.474Z,22.5205
2023-05-05T09:03:31.065Z,22.4848
2023-05-05T09:04:32.656Z,22.3414
2023-05-05T09:05:34.253Z,22.2416
2023-05-05T09:06:35.924Z,22.1206
2023-05-05T09:07:37.554Z,21.9121
2023-05-05T09:08:39.233Z,21.6377
2023-05-05T09:09:40.818Z,21.5023
2023-05-05T09:10:42.495Z,21.4785
2023-05-05T09:11:44.147Z,21.5456
2023-05-05T09:12:45.818Z,21.4127
2023-05-05T09:13:48.001Z,21.2505
2023-05-05T09:14:49.109Z,21.1617
2023-05-05T09:15:50.685Z,21.2383
2023-05-05T09:16:52.265Z,21.3240
2023-05-05T09:17:53.982Z,21.2203
2023-05-05T09:18:55.673Z,21.0660
2023-05-05T09:19:57.361Z,20.9756
2023-05-05T09:20:59.573Z,20.9863
2023-05-05T09:22:00.550Z,20.9282
2023-05-05T09:23:02.204Z,20.8423
2023-05-05T09:24:08.216Z,20.8924
2023-05-05T09:25:05.682Z,21.0210
2023-05-05T09:26:07.072Z,20.9668
2023-05-05T09:27:08.785Z,20.8943
2023-05-05T09:28:10.428Z,20.8867
2023-05-05T09:29:12.079Z,20.9943
2023-05-05T09:30:13.719Z,20.9103
2023-05-05T09:31:15.445Z,20.7805
2023-05-05T09:32:16.992Z,20.8197
2023-05-05T09:33:18.623Z,20.8828
2023-05-05T09:34:20.342Z,20.8109
2023-05-05T09:35:22.039Z,20.7283
2023-05-05T09:36:24.233Z,20.7667
2023-05-05T09:37:25.216Z,20.9103
2023-05-05T09:38:26.789Z,20.8341
2023-05-05T09:39:28.548Z,20.6794
2023-05-05T09:40:30.138Z,20.6852
2023-05-05T09:41:31.731Z,20.8212
2023-05-05T09:42:33.407Z,20.8916
2023-05-05T09:43:35.096Z,20.8218
2023-05-05T09:44:36.736Z,20.6579
2023-05-05T09:45:38.722Z,20.6653
2023-05-05T09:46:40.049Z,20.8345
2023-05-05T09:47:41.612Z,20.8627
2023-05-05T09:48:43.271Z,20.7869
2023-05-05T09:49:45.688Z,20.7606
2023-05-05T09:50:46.667Z,20.9169
2023-05-05T09:51:49.010Z,20.9867
2023-05-05T09:52:49.807Z,20.8641
2023-05-05T09:53:51.537Z,20.7645
2023-05-05T09:54:53.117Z,20.8105
2023-05-05T09:55:54.835Z,20.9428
2023-05-05T09:56:56.585Z,20.9841
2023-05-05T09:57:58.084Z,20.8906
2023-05-05T09:58:59.678Z,20.8546
2023-05-05T10:00:01.366Z,20.9272
2023-05-05T10:01:03.036Z,20.9046
2023-05-05T10:02:04.709Z,20.8639
2023-05-05T10:03:06.330Z,20.8156
2023-05-05T10:04:07.881Z,20.8929
2023-05-05T10:05:09.551Z,20.9331
2023-05-05T10:06:11.241Z,20.8214
2023-05-05T10:07:12.808Z,20.7569
2023-05-05T10:08:14.454Z,20.8355
2023-05-05T10:09:16.127Z,20.8924
2023-05-05T10:10:17.786Z,20.8025
2023-05-05T10:11:19.393Z,20.7349
2023-05-05T10:12:20.974Z,20.7682
2023-05-05T10:13:22.741Z,20.8637
2023-05-05T10:14:24.260Z,20.8113
2023-05-05T10:15:25.989Z,20.7222
2023-05-05T10:16:29.077Z,20.7497
2023-05-05T10:17:29.352Z,20.9204
2023-05-05T10:18:30.883Z,20.9588
2023-05-05T10:19:32.507Z,20.8497
2023-05-05T10:20:34.260Z,20.7698
2023-05-05T10:21:36.297Z,20.8286
2023-05-05T10:22:37.497Z,20.9604
2023-05-05T10:23:39.090Z,20.8715
2023-05-05T10:24:40.696Z,20.7540
2023-05-05T10:25:42.375Z,20.7515
2023-05-05T10:26:44.089Z,20.9713
2023-05-05T10:27:45.659Z,20.9861
2023-05-05T10:28:47.251Z,20.9272
2023-05-05T10:29:48.949Z,20.9335
2023-05-05T10:30:50.604Z,21.0564
2023-05-05T10:31:54.380Z,21.0069
2023-05-05T10:33:04.034Z,20.9177
2023-05-05T10:33:55.730Z,20.8777
2023-05-05T10:34:57.163Z,20.9810
2023-05-05T10:35:58.874Z,21.0257
2023-05-05T10:37:00.376Z,20.9157
2023-05-05T10:38:02.178Z,20.8033
2023-05-05T10:39:03.612Z,20.8709
2023-05-05T10:40:05.464Z,21.0247
2023-05-05T10:41:06.958Z,21.0027
2023-05-05T10:42:08.622Z,20.9777
2023-05-05T10:43:10.263Z,21.0040
2023-05-05T10:44:11.842Z,21.1862
2023-05-05T10:45:13.484Z,21.2182
2023-05-05T10:46:15.215Z,21.1738
2023-05-05T10:47:16.818Z,21.2568
2023-05-05T10:48:18.441Z,21.4729
2023-05-05T10:49:20.068Z,21.5237
2023-05-05T10:50:21.703Z,21.3883
2023-05-05T10:51:38.640Z,21.3961
2023-05-05T10:52:25.109Z,21.5698
2023-05-05T10:53:26.642Z,21.5179
2023-05-05T10:54:28.345Z,21.3115
2023-05-05T10:55:29.912Z,21.2558
2023-05-05T10:56:31.656Z,21.3273
2023-05-05T10:57:33.704Z,21.3137
2023-05-05T10:58:43.685Z,21.1640
2023-05-05T10:59:36.528Z,21.1478
2023-05-05T11:00:38.240Z,21.2963
2023-05-05T11:01:39.863Z,21.4727
2023-05-05T11:02:41.712Z,21.4756
2023-05-05T11:03:43.040Z,21.5093
2023-05-05T11:04:44.670Z,21.6668
2023-05-05T11:05:46.354Z,21.7223
2023-05-05T11:06:48.041Z,21.6693
2023-05-05T11:07:50.194Z,21.6820
2023-05-05T11:08:51.247Z,21.7646
2023-05-05T11:09:52.927Z,21.7233
2023-05-05T11:10:55.116Z,21.5604
2023-05-05T11:11:56.315Z,21.4626
2023-05-05T11:12:57.999Z,21.4711
2023-05-05T11:13:59.544Z,21.4575
2023-05-05T11:15:01.138Z,21.3493
2023-05-05T11:16:02.749Z,21.2451
2023-05-05T11:17:04.468Z,21.2353
2023-05-05T11:18:07.845Z,21.3515
2023-05-05T11:19:07.762Z,21.3460
2023-05-05T11:20:09.650Z,21.2505
2023-05-05T11:21:11.062Z,21.1817
2023-05-05T11:22:13.245Z,21.2805
2023-05-05T11:23:16.607Z,21.4990
2023-05-05T11:24:16.665Z,21.5146
2023-05-05T11:25:17.617Z,21.4548
2023-05-05T11:26:19.212Z,21.3727
2023-05-05T11:27:20.952Z,21.3945
2023-05-05T11:28:22.546Z,21.4097
2023-05-05T11:29:24.182Z,21.3751
2023-05-05T11:30:25.795Z,21.3836
2023-05-05T11:31:27.521Z,21.4602
2023-05-05T11:32:29.156Z,21.3916
2023-05-05T11:33:30.857Z,21.2270
2023-05-05T11:34:32.383Z,21.3014
2023-05-05T11:35:34.107Z,21.4688
2023-05-05T11:36:35.621Z,21.4941
2023-05-05T11:37:37.725Z,21.5417
2023-05-05T11:38:39.028Z,21.5668
2023-05-05T11:39:40.639Z,21.6886
2023-05-05T11:40:42.206Z,21.6946
2023-05-05T11:41:43.866Z,21.6130
2023-05-05T11:42:45.691Z,21.6317
2023-05-05T11:43:47.196Z,21.7381
2023-05-05T11:44:48.782Z,21.6851
2023-05-05T11:45:50.438Z,21.5432
2023-05-05T11:46:52.052Z,21.5267
2023-05-05T11:47:53.780Z,21.4873
2023-05-05T11:48:55.665Z,21.3710
2023-05-05T11:49:57.081Z,21.2326
2023-05-05T11:50:58.631Z,21.2221
2023-05-05T11:52:00.297Z,21.2219
2023-05-05T11:53:02.021Z,21.1167
2023-05-05T11:54:03.700Z,21.1338
2023-05-05T11:55:05.350Z,21.2521
2023-05-05T11:56:07.013Z,21.4454
2023-05-05T11:57:08.655Z,21.5389
2023-05-05T11:58:10.393Z,21.5561
2023-05-05T11:59:11.946Z,21.6502
2023-05-05T12:00:13.564Z,21.7001
2023-05-05T12:01:15.212Z,21.6777
2023-05-05T12:02:16.968Z,21.6315
2023-05-05T12:03:18.577Z,21.5721
2023-05-05T12:04:20.211Z,21.5175
2023-05-05T12:05:21.905Z,21.4522
2023-05-05T12:06:23.374Z,21.5391
2023-05-05T12:07:25.150Z,21.5715
2023-05-05T12:08:26.698Z,21.6299
2023-05-05T12:09:28.345Z,21.6266
2023-05-05T12:10:29.971Z,21.5617
2023-05-05T12:11:31.656Z,21.5578
2023-05-05T12:12:34.082Z,21.6422
2023-05-05T12:13:35.777Z,21.6676
2023-05-05T12:14:36.563Z,21.5491
2023-05-05T12:15:38.222Z,21.4448
2023-05-05T12:16:40.002Z,21.4351
2023-05-05T12:17:41.469Z,21.4197
2023-05-05T12:18:43.397Z,21.2653
2023-05-05T12:19:44.865Z,21.0833
2023-05-05T12:20:46.457Z,21.2503
2023-05-05T12:21:48.074Z,21.4382
2023-05-05T12:22:49.674Z,21.2729
2023-05-05T12:23:51.299Z,21.1630
2023-05-05T12:24:54.927Z,21.1432